sensor_id;sensor_type;location;lat;lon;timestamp;P1;durP1;ratioP1;P2;durP2;ratioP2
33672;SDS011;20011;51.510;9.942;2023-05-08T00:02:16;9.98;;;7.20;;
33672;SDS011;20011;51.510;9.942;2023-05-08T00:04:42;15.38;;;7.03;;
33672;SDS011;20011;51.510;9.942;2023-05-08T00:07:10;12.55;;;7.70;;
33672;SDS011;20011;51.510;9.942;2023-05-08T00:09:37;17.25;;;8.75;;
33672;SDS011;20011;51.510;9.942;2023-05-08T00:12:04;9.30;;;7.25;;
33672;SDS011;20011;51.510;9.942;2023-05-08T00:14:31;12.30;;;9.10;;
33672;SDS011;20011;51.510;9.942;2023-05-08T00:16:57;11.95;;;8.32;;
33672;SDS011;20011;51.510;9.942;2023-05-08T00:19:24;10.55;;;8.02;;
33672;SDS011;20011;51.510;9.942;2023-05-08T00:21:51;10.98;;;8.07;;
33672;SDS011;20011;51.510;9.942;2023-05-08T00:24:18;15.45;;;8.65;;
33672;SDS011;20011;51.510;9.942;2023-05-08T00:26:45;10.38;;;8.43;;
33672;SDS011;20011;51.510;9.942;2023-05-08T00:29:12;12.65;;;8.43;;
33672;SDS011;20011;51.510;9.942;2023-05-08T00:31:39;12.10;;;8.48;;
33672;SDS011;20011;51.510;9.942;2023-05-08T00:34:06;17.35;;;7.97;;
33672;SDS011;20011;51.510;9.942;2023-05-08T00:36:33;12.70;;;8.10;;
33672;SDS011;20011;51.510;9.942;2023-05-08T00:39:00;8.18;;;6.97;;
33672;SDS011;20011;51.510;9.942;2023-05-08T00:41:27;10.73;;;7.68;;
33672;SDS011;20011;51.510;9.942;2023-05-08T00:43:55;17.67;;;8.63;;
33672;SDS011;20011;51.510;9.942;2023-05-08T00:46:22;12.43;;;7.95;;
33672;SDS011;20011;51.510;9.942;2023-05-08T00:48:50;10.63;;;7.75;;
33672;SDS011;20011;51.510;9.942;2023-05-08T00:51:17;15.65;;;8.10;;
33672;SDS011;20011;51.510;9.942;2023-05-08T00:53:44;12.07;;;8.05;;
33672;SDS011;20011;51.510;9.942;2023-05-08T00:56:12;8.98;;;6.88;;
33672;SDS011;20011;51.510;9.942;2023-05-08T00:58:41;12.45;;;7.35;;
33672;SDS011;20011;51.510;9.942;2023-05-08T01:01:09;12.05;;;7.95;;
33672;SDS011;20011;51.510;9.942;2023-05-08T01:03:37;13.52;;;8.23;;
33672;SDS011;20011;51.510;9.942;2023-05-08T01:06:04;11.57;;;7.88;;
33672;SDS011;20011;51.510;9.942;2023-05-08T01:08:32;19.75;;;8.32;;
33672;SDS011;20011;51.510;9.942;2023-05-08T01:18:46;10.73;;;7.65;;
33672;SDS011;20011;51.510;9.942;2023-05-08T01:32:22;11.27;;;8.05;;
33672;SDS011;20011;51.510;9.942;2023-05-08T01:35:01;9.27;;;8.10;;
33672;SDS011;20011;51.510;9.942;2023-05-08T01:37:56;10.65;;;8.00;;
33672;SDS011;20011;51.510;9.942;2023-05-08T01:40:59;11.48;;;8.43;;
33672;SDS011;20011;51.510;9.942;2023-05-08T01:43:47;9.88;;;8.23;;
33672;SDS011;20011;51.510;9.942;2023-05-08T01:46:25;10.60;;;8.00;;
33672;SDS011;20011;51.510;9.942;2023-05-08T01:49:04;11.18;;;8.57;;
33672;SDS011;20011;51.510;9.942;2023-05-08T01:51:44;10.88;;;7.90;;
33672;SDS011;20011;51.510;9.942;2023-05-08T01:54:15;10.93;;;8.05;;
33672;SDS011;20011;51.510;9.942;2023-05-08T01:56:48;11.13;;;7.85;;
33672;SDS011;20011;51.510;9.942;2023-05-08T01:59:18;11.15;;;8.32;;
33672;SDS011;20011;51.510;9.942;2023-05-08T02:01:50;11.68;;;7.78;;
33672;SDS011;20011;51.510;9.942;2023-05-08T02:04:22;9.90;;;7.90;;
33672;SDS011;20011;51.510;9.942;2023-05-08T02:06:51;17.30;;;9.23;;
33672;SDS011;20011;51.510;9.942;2023-05-08T02:09:21;12.23;;;8.65;;
33672;SDS011;20011;51.510;9.942;2023-05-08T02:11:50;12.18;;;9.07;;
33672;SDS011;20011;51.510;9.942;2023-05-08T02:14:19;11.93;;;9.27;;
33672;SDS011;20011;51.510;9.942;2023-05-08T02:16:47;12.20;;;8.38;;
33672;SDS011;20011;51.510;9.942;2023-05-08T02:19:17;11.70;;;8.25;;
33672;SDS011;20011;51.510;9.942;2023-05-08T02:21:47;9.70;;;8.00;;
33672;SDS011;20011;51.510;9.942;2023-05-08T02:24:14;10.80;;;8.40;;
33672;SDS011;20011;51.510;9.942;2023-05-08T02:26:43;12.02;;;8.25;;
33672;SDS011;20011;51.510;9.942;2023-05-08T02:29:11;13.23;;;8.38;;
33672;SDS011;20011;51.510;9.942;2023-05-08T02:31:39;10.07;;;8.20;;
33672;SDS011;20011;51.510;9.942;2023-05-08T02:34:08;10.95;;;7.35;;
33672;SDS011;20011;51.510;9.942;2023-05-08T02:36:35;11.68;;;8.68;;
33672;SDS011;20011;51.510;9.942;2023-05-08T02:39:04;9.50;;;7.82;;
33672;SDS011;20011;51.510;9.942;2023-05-08T02:41:32;16.73;;;8.45;;
33672;SDS011;20011;51.510;9.942;2023-05-08T02:44:00;12.07;;;9.43;;
33672;SDS011;20011;51.510;9.942;2023-05-08T02:49:12;10.70;;;8.50;;
33672;SDS011;20011;51.510;9.942;2023-05-08T03:00:14;12.55;;;8.20;;
33672;SDS011;20011;51.510;9.942;2023-05-08T03:02:47;12.00;;;8.43;;
33672;SDS011;20011;51.510;9.942;2023-05-08T03:05:18;11.35;;;8.73;;
33672;SDS011;20011;51.510;9.942;2023-05-08T03:07:52;11.45;;;8.75;;
33672;SDS011;20011;51.510;9.942;2023-05-08T03:10:22;12.10;;;8.15;;
33672;SDS011;20011;51.510;9.942;2023-05-08T03:12:54;11.95;;;8.90;;
33672;SDS011;20011;51.510;9.942;2023-05-08T03:15:27;10.80;;;8.30;;
33672;SDS011;20011;51.510;9.942;2023-05-08T03:18:12;11.82;;;8.40;;
33672;SDS011;20011;51.510;9.942;2023-05-08T03:20:43;9.82;;;8.57;;
33672;SDS011;20011;51.510;9.942;2023-05-08T03:23:13;14.50;;;9.27;;
33672;SDS011;20011;51.510;9.942;2023-05-08T03:25:42;11.20;;;8.70;;
33672;SDS011;20011;51.510;9.942;2023-05-08T03:28:11;11.85;;;9.30;;
33672;SDS011;20011;51.510;9.942;2023-05-08T03:30:39;12.50;;;8.80;;
33672;SDS011;20011;51.510;9.942;2023-05-08T03:33:10;12.50;;;8.77;;
33672;SDS011;20011;51.510;9.942;2023-05-08T03:35:38;10.05;;;8.10;;
33672;SDS011;20011;51.510;9.942;2023-05-08T03:38:07;11.35;;;8.63;;
33672;SDS011;20011;51.510;9.942;2023-05-08T03:40:34;14.18;;;9.05;;
33672;SDS011;20011;51.510;9.942;2023-05-08T03:43:04;10.93;;;8.40;;
33672;SDS011;20011;51.510;9.942;2023-05-08T03:45:34;14.23;;;9.45;;
33672;SDS011;20011;51.510;9.942;2023-05-08T03:48:05;12.45;;;8.63;;
33672;SDS011;20011;51.510;9.942;2023-05-08T03:50:35;15.87;;;9.50;;
33672;SDS011;20011;51.510;9.942;2023-05-08T03:53:06;12.70;;;9.57;;
33672;SDS011;20011;51.510;9.942;2023-05-08T03:55:33;12.13;;;9.25;;
33672;SDS011;20011;51.510;9.942;2023-05-08T03:58:47;13.48;;;8.88;;
33672;SDS011;20011;51.510;9.942;2023-05-08T04:01:11;13.10;;;9.63;;
33672;SDS011;20011;51.510;9.942;2023-05-08T04:06:33;11.23;;;8.45;;
33672;SDS011;20011;51.510;9.942;2023-05-08T04:12:04;13.52;;;9.38;;
33672;SDS011;20011;51.510;9.942;2023-05-08T04:14:42;13.43;;;10.30;;
33672;SDS011;20011;51.510;9.942;2023-05-08T04:17:13;14.02;;;9.80;;
33672;SDS011;20011;51.510;9.942;2023-05-08T04:19:47;12.45;;;9.15;;
33672;SDS011;20011;51.510;9.942;2023-05-08T04:22:20;13.13;;;9.68;;
33672;SDS011;20011;51.510;9.942;2023-05-08T04:24:50;13.50;;;9.68;;
33672;SDS011;20011;51.510;9.942;2023-05-08T04:27:22;16.63;;;10.82;;
33672;SDS011;20011;51.510;9.942;2023-05-08T04:29:50;17.83;;;10.45;;
33672;SDS011;20011;51.510;9.942;2023-05-08T04:32:17;14.82;;;10.20;;
33672;SDS011;20011;51.510;9.942;2023-05-08T04:34:46;16.15;;;10.60;;
33672;SDS011;20011;51.510;9.942;2023-05-08T04:37:25;17.05;;;9.60;;
33672;SDS011;20011;51.510;9.942;2023-05-08T04:39:56;13.60;;;10.18;;
33672;SDS011;20011;51.510;9.942;2023-05-08T04:42:24;13.20;;;10.38;;
33672;SDS011;20011;51.510;9.942;2023-05-08T04:44:53;17.83;;;10.70;;
33672;SDS011;20011;51.510;9.942;2023-05-08T04:47:20;19.02;;;11.38;;
33672;SDS011;20011;51.510;9.942;2023-05-08T04:49:49;13.90;;;10.35;;
33672;SDS011;20011;51.510;9.942;2023-05-08T04:52:17;15.88;;;10.88;;
33672;SDS011;20011;51.510;9.942;2023-05-08T04:54:44;14.43;;;10.55;;
33672;SDS011;20011;51.510;9.942;2023-05-08T04:57:12;14.80;;;10.10;;
33672;SDS011;20011;51.510;9.942;2023-05-08T04:59:39;16.52;;;10.70;;
33672;SDS011;20011;51.510;9.942;2023-05-08T05:02:06;15.50;;;10.48;;
33672;SDS011;20011;51.510;9.942;2023-05-08T05:04:35;17.90;;;11.32;;
33672;SDS011;20011;51.510;9.942;2023-05-08T05:07:03;13.95;;;10.40;;
33672;SDS011;20011;51.510;9.942;2023-05-08T05:09:31;14.20;;;10.70;;
33672;SDS011;20011;51.510;9.942;2023-05-08T05:12:03;15.02;;;11.18;;
33672;SDS011;20011;51.510;9.942;2023-05-08T05:14:31;13.25;;;10.77;;
33672;SDS011;20011;51.510;9.942;2023-05-08T05:16:59;18.85;;;10.93;;
33672;SDS011;20011;51.510;9.942;2023-05-08T05:19:26;15.15;;;11.23;;
33672;SDS011;20011;51.510;9.942;2023-05-08T05:21:54;14.73;;;11.30;;
33672;SDS011;20011;51.510;9.942;2023-05-08T05:24:21;18.85;;;11.15;;
33672;SDS011;20011;51.510;9.942;2023-05-08T05:26:48;13.82;;;10.95;;
33672;SDS011;20011;51.510;9.942;2023-05-08T05:29:15;14.40;;;10.90;;
33672;SDS011;20011;51.510;9.942;2023-05-08T05:31:42;16.88;;;11.10;;
33672;SDS011;20011;51.510;9.942;2023-05-08T05:34:10;13.82;;;11.10;;
33672;SDS011;20011;51.510;9.942;2023-05-08T05:36:37;14.68;;;11.15;;
33672;SDS011;20011;51.510;9.942;2023-05-08T05:39:03;13.40;;;10.27;;
33672;SDS011;20011;51.510;9.942;2023-05-08T05:41:31;15.63;;;11.85;;
33672;SDS011;20011;51.510;9.942;2023-05-08T05:43:59;15.75;;;11.50;;
33672;SDS011;20011;51.510;9.942;2023-05-08T05:46:27;14.43;;;11.00;;
33672;SDS011;20011;51.510;9.942;2023-05-08T05:49:00;15.93;;;11.20;;
33672;SDS011;20011;51.510;9.942;2023-05-08T05:51:27;17.73;;;12.30;;
33672;SDS011;20011;51.510;9.942;2023-05-08T05:53:55;17.00;;;11.88;;
33672;SDS011;20011;51.510;9.942;2023-05-08T05:56:23;13.55;;;10.85;;
33672;SDS011;20011;51.510;9.942;2023-05-08T05:58:51;16.33;;;11.73;;
33672;SDS011;20011;51.510;9.942;2023-05-08T06:01:18;14.20;;;11.23;;
33672;SDS011;20011;51.510;9.942;2023-05-08T06:03:45;17.35;;;10.43;;
33672;SDS011;20011;51.510;9.942;2023-05-08T06:06:12;15.30;;;11.70;;
33672;SDS011;20011;51.510;9.942;2023-05-08T06:08:39;15.75;;;11.13;;
33672;SDS011;20011;51.510;9.942;2023-05-08T06:11:06;15.55;;;12.00;;
33672;SDS011;20011;51.510;9.942;2023-05-08T06:13:33;15.07;;;10.77;;
33672;SDS011;20011;51.510;9.942;2023-05-08T06:16:00;15.88;;;12.05;;
33672;SDS011;20011;51.510;9.942;2023-05-08T06:18:28;13.40;;;10.68;;
33672;SDS011;20011;51.510;9.942;2023-05-08T06:20:56;14.70;;;12.07;;
33672;SDS011;20011;51.510;9.942;2023-05-08T06:23:24;14.45;;;11.30;;
33672;SDS011;20011;51.510;9.942;2023-05-08T06:25:51;14.68;;;11.13;;
33672;SDS011;20011;51.510;9.942;2023-05-08T06:28:18;20.35;;;11.30;;
33672;SDS011;20011;51.510;9.942;2023-05-08T06:30:47;14.85;;;11.30;;
33672;SDS011;20011;51.510;9.942;2023-05-08T06:33:14;17.02;;;12.13;;
33672;SDS011;20011;51.510;9.942;2023-05-08T06:35:44;15.52;;;11.52;;
33672;SDS011;20011;51.510;9.942;2023-05-08T06:38:13;16.92;;;11.70;;
33672;SDS011;20011;51.510;9.942;2023-05-08T06:40:43;14.32;;;11.85;;
33672;SDS011;20011;51.510;9.942;2023-05-08T06:43:11;14.27;;;11.00;;
33672;SDS011;20011;51.510;9.942;2023-05-08T06:45:38;14.95;;;11.10;;
33672;SDS011;20011;51.510;9.942;2023-05-08T06:48:06;17.63;;;11.98;;
33672;SDS011;20011;51.510;9.942;2023-05-08T06:50:36;15.25;;;11.35;;
33672;SDS011;20011;51.510;9.942;2023-05-08T06:53:03;19.75;;;12.52;;
33672;SDS011;20011;51.510;9.942;2023-05-08T06:55:30;16.55;;;12.15;;
33672;SDS011;20011;51.510;9.942;2023-05-08T06:57:57;15.35;;;11.55;;
33672;SDS011;20011;51.510;9.942;2023-05-08T07:00:24;16.50;;;12.07;;
33672;SDS011;20011;51.510;9.942;2023-05-08T07:02:51;15.65;;;12.02;;
33672;SDS011;20011;51.510;9.942;2023-05-08T07:05:18;16.45;;;12.82;;
33672;SDS011;20011;51.510;9.942;2023-05-08T07:07:45;17.25;;;11.90;;
33672;SDS011;20011;51.510;9.942;2023-05-08T07:10:12;15.40;;;12.32;;
33672;SDS011;20011;51.510;9.942;2023-05-08T07:12:39;18.38;;;12.40;;
33672;SDS011;20011;51.510;9.942;2023-05-08T07:15:07;15.45;;;11.50;;
33672;SDS011;20011;51.510;9.942;2023-05-08T07:17:51;20.80;;;12.35;;
33672;SDS011;20011;51.510;9.942;2023-05-08T07:20:18;19.38;;;11.88;;
33672;SDS011;20011;51.510;9.942;2023-05-08T07:22:45;19.13;;;11.98;;
33672;SDS011;20011;51.510;9.942;2023-05-08T07:25:12;14.48;;;11.35;;
33672;SDS011;20011;51.510;9.942;2023-05-08T07:27:39;14.55;;;11.57;;
33672;SDS011;20011;51.510;9.942;2023-05-08T07:30:07;17.20;;;11.93;;
33672;SDS011;20011;51.510;9.942;2023-05-08T07:32:34;15.15;;;11.40;;
33672;SDS011;20011;51.510;9.942;2023-05-08T07:35:01;16.23;;;11.40;;
33672;SDS011;20011;51.510;9.942;2023-05-08T07:37:29;17.95;;;11.68;;
33672;SDS011;20011;51.510;9.942;2023-05-08T07:39:56;12.93;;;10.32;;
33672;SDS011;20011;51.510;9.942;2023-05-08T07:42:23;13.68;;;11.07;;
33672;SDS011;20011;51.510;9.942;2023-05-08T07:44:50;13.93;;;10.85;;
33672;SDS011;20011;51.510;9.942;2023-05-08T07:47:20;17.85;;;11.93;;
33672;SDS011;20011;51.510;9.942;2023-05-08T07:49:47;14.13;;;11.10;;
33672;SDS011;20011;51.510;9.942;2023-05-08T07:52:14;13.13;;;10.35;;
33672;SDS011;20011;51.510;9.942;2023-05-08T07:54:42;16.80;;;11.27;;
33672;SDS011;20011;51.510;9.942;2023-05-08T07:57:09;14.70;;;10.55;;
33672;SDS011;20011;51.510;9.942;2023-05-08T07:59:37;13.38;;;10.90;;
33672;SDS011;20011;51.510;9.942;2023-05-08T08:02:04;15.68;;;11.65;;
33672;SDS011;20011;51.510;9.942;2023-05-08T08:04:31;13.63;;;11.60;;
33672;SDS011;20011;51.510;9.942;2023-05-08T08:06:58;13.07;;;10.45;;
33672;SDS011;20011;51.510;9.942;2023-05-08T08:09:26;16.10;;;10.57;;
33672;SDS011;20011;51.510;9.942;2023-05-08T08:11:52;17.08;;;12.15;;
33672;SDS011;20011;51.510;9.942;2023-05-08T08:14:19;14.02;;;10.68;;
33672;SDS011;20011;51.510;9.942;2023-05-08T08:16:46;14.75;;;10.27;;
33672;SDS011;20011;51.510;9.942;2023-05-08T08:19:13;15.10;;;11.02;;
33672;SDS011;20011;51.510;9.942;2023-05-08T08:21:41;13.32;;;10.70;;
33672;SDS011;20011;51.510;9.942;2023-05-08T08:24:09;17.40;;;11.00;;
33672;SDS011;20011;51.510;9.942;2023-05-08T08:26:36;19.95;;;12.30;;
33672;SDS011;20011;51.510;9.942;2023-05-08T08:29:03;15.77;;;10.68;;
33672;SDS011;20011;51.510;9.942;2023-05-08T08:31:30;14.95;;;10.30;;
33672;SDS011;20011;51.510;9.942;2023-05-08T08:33:57;12.10;;;9.50;;
33672;SDS011;20011;51.510;9.942;2023-05-08T08:36:25;14.45;;;10.70;;
33672;SDS011;20011;51.510;9.942;2023-05-08T08:38:52;14.18;;;9.82;;
33672;SDS011;20011;51.510;9.942;2023-05-08T08:41:19;14.48;;;9.55;;
33672;SDS011;20011;51.510;9.942;2023-05-08T08:43:47;14.15;;;10.13;;
33672;SDS011;20011;51.510;9.942;2023-05-08T08:46:14;12.27;;;9.40;;
33672;SDS011;20011;51.510;9.942;2023-05-08T08:48:45;11.10;;;9.13;;
33672;SDS011;20011;51.510;9.942;2023-05-08T08:51:26;17.77;;;8.98;;
33672;SDS011;20011;51.510;9.942;2023-05-08T08:54:16;11.23;;;9.20;;
33672;SDS011;20011;51.510;9.942;2023-05-08T08:56:47;11.95;;;10.00;;
33672;SDS011;20011;51.510;9.942;2023-05-08T08:59:15;15.07;;;10.82;;
33672;SDS011;20011;51.510;9.942;2023-05-08T09:01:44;10.18;;;9.02;;
33672;SDS011;20011;51.510;9.942;2023-05-08T09:04:15;12.95;;;9.23;;
33672;SDS011;20011;51.510;9.942;2023-05-08T09:06:43;12.45;;;8.95;;
33672;SDS011;20011;51.510;9.942;2023-05-08T09:09:11;13.30;;;9.85;;
33672;SDS011;20011;51.510;9.942;2023-05-08T09:11:39;12.95;;;10.68;;
33672;SDS011;20011;51.510;9.942;2023-05-08T09:14:06;12.38;;;10.23;;
33672;SDS011;20011;51.510;9.942;2023-05-08T09:16:34;17.67;;;8.88;;
33672;SDS011;20011;51.510;9.942;2023-05-08T09:19:02;14.85;;;9.23;;
33672;SDS011;20011;51.510;9.942;2023-05-08T09:21:30;15.95;;;9.82;;
33672;SDS011;20011;51.510;9.942;2023-05-08T09:24:01;11.48;;;9.60;;
33672;SDS011;20011;51.510;9.942;2023-05-08T09:26:33;16.95;;;8.80;;
33672;SDS011;20011;51.510;9.942;2023-05-08T09:29:14;11.98;;;7.97;;
33672;SDS011;20011;51.510;9.942;2023-05-08T09:31:48;7.82;;;5.85;;
33672;SDS011;20011;51.510;9.942;2023-05-08T09:34:23;8.18;;;6.28;;
33672;SDS011;20011;51.510;9.942;2023-05-08T09:39:31;13.93;;;6.43;;
33672;SDS011;20011;51.510;9.942;2023-05-08T09:41:58;11.45;;;7.50;;
33672;SDS011;20011;51.510;9.942;2023-05-08T09:44:27;10.57;;;7.88;;
33672;SDS011;20011;51.510;9.942;2023-05-08T09:47:13;14.95;;;7.07;;
33672;SDS011;20011;51.510;9.942;2023-05-08T09:50:09;8.40;;;6.97;;
33672;SDS011;20011;51.510;9.942;2023-05-08T09:52:37;9.55;;;7.32;;
33672;SDS011;20011;51.510;9.942;2023-05-08T09:55:11;9.80;;;7.82;;
33672;SDS011;20011;51.510;9.942;2023-05-08T09:57:38;12.60;;;9.48;;
33672;SDS011;20011;51.510;9.942;2023-05-08T10:00:16;9.95;;;8.52;;
33672;SDS011;20011;51.510;9.942;2023-05-08T10:02:59;11.25;;;8.45;;
33672;SDS011;20011;51.510;9.942;2023-05-08T10:07:58;12.55;;;9.10;;
33672;SDS011;20011;51.510;9.942;2023-05-08T10:10:43;10.57;;;8.95;;
33672;SDS011;20011;51.510;9.942;2023-05-08T10:13:11;13.75;;;10.35;;
33672;SDS011;20011;51.510;9.942;2023-05-08T10:15:40;12.50;;;9.80;;
33672;SDS011;20011;51.510;9.942;2023-05-08T10:18:08;11.60;;;9.18;;
33672;SDS011;20011;51.510;9.942;2023-05-08T10:20:41;10.85;;;8.85;;
33672;SDS011;20011;51.510;9.942;2023-05-08T10:23:13;11.77;;;9.80;;
33672;SDS011;20011;51.510;9.942;2023-05-08T10:25:45;13.50;;;9.98;;
33672;SDS011;20011;51.510;9.942;2023-05-08T10:30:54;12.48;;;9.25;;
33672;SDS011;20011;51.510;9.942;2023-05-08T10:33:28;15.27;;;8.45;;
33672;SDS011;20011;51.510;9.942;2023-05-08T10:35:57;13.52;;;8.65;;
33672;SDS011;20011;51.510;9.942;2023-05-08T10:38:25;10.75;;;8.65;;
33672;SDS011;20011;51.510;9.942;2023-05-08T10:40:52;11.38;;;8.93;;
33672;SDS011;20011;51.510;9.942;2023-05-08T10:43:23;9.45;;;7.82;;
33672;SDS011;20011;51.510;9.942;2023-05-08T10:45:51;9.43;;;7.70;;
33672;SDS011;20011;51.510;9.942;2023-05-08T10:56:24;9.45;;;7.95;;
33672;SDS011;20011;51.510;9.942;2023-05-08T10:58:56;11.52;;;8.38;;
33672;SDS011;20011;51.510;9.942;2023-05-08T11:01:24;12.68;;;8.60;;
33672;SDS011;20011;51.510;9.942;2023-05-08T11:03:51;12.52;;;9.05;;
33672;SDS011;20011;51.510;9.942;2023-05-08T11:09:08;13.23;;;8.55;;
33672;SDS011;20011;51.510;9.942;2023-05-08T11:12:04;10.75;;;7.72;;
33672;SDS011;20011;51.510;9.942;2023-05-08T11:14:34;11.38;;;8.70;;
33672;SDS011;20011;51.510;9.942;2023-05-08T11:17:04;8.68;;;7.10;;
33672;SDS011;20011;51.510;9.942;2023-05-08T11:19:32;15.40;;;8.07;;
33672;SDS011;20011;51.510;9.942;2023-05-08T11:24:48;8.90;;;7.28;;
33672;SDS011;20011;51.510;9.942;2023-05-08T11:27:20;9.98;;;8.60;;
33672;SDS011;20011;51.510;9.942;2023-05-08T11:35:45;9.25;;;6.88;;
33672;SDS011;20011;51.510;9.942;2023-05-08T11:38:24;11.85;;;7.35;;
33672;SDS011;20011;51.510;9.942;2023-05-08T11:41:06;21.85;;;8.77;;
33672;SDS011;20011;51.510;9.942;2023-05-08T11:46:34;10.25;;;5.93;;
33672;SDS011;20011;51.510;9.942;2023-05-08T11:49:22;10.68;;;5.95;;
33672;SDS011;20011;51.510;9.942;2023-05-08T11:51:56;10.68;;;6.85;;
33672;SDS011;20011;51.510;9.942;2023-05-08T11:54:24;9.65;;;6.53;;
33672;SDS011;20011;51.510;9.942;2023-05-08T11:59:21;8.02;;;5.80;;
33672;SDS011;20011;51.510;9.942;2023-05-08T12:01:48;6.20;;;4.93;;
33672;SDS011;20011;51.510;9.942;2023-05-08T12:04:43;6.20;;;4.75;;
33672;SDS011;20011;51.510;9.942;2023-05-08T12:07:13;6.47;;;5.75;;
33672;SDS011;20011;51.510;9.942;2023-05-08T12:09:41;9.60;;;7.10;;
33672;SDS011;20011;51.510;9.942;2023-05-08T12:12:08;10.55;;;7.07;;
33672;SDS011;20011;51.510;9.942;2023-05-08T12:14:35;8.25;;;5.72;;
33672;SDS011;20011;51.510;9.942;2023-05-08T12:17:02;9.90;;;5.40;;
33672;SDS011;20011;51.510;9.942;2023-05-08T12:19:29;9.23;;;5.10;;
33672;SDS011;20011;51.510;9.942;2023-05-08T12:21:56;5.80;;;4.40;;
33672;SDS011;20011;51.510;9.942;2023-05-08T12:24:23;7.45;;;4.55;;
33672;SDS011;20011;51.510;9.942;2023-05-08T12:26:52;6.68;;;5.57;;
33672;SDS011;20011;51.510;9.942;2023-05-08T12:29:20;10.80;;;5.75;;
33672;SDS011;20011;51.510;9.942;2023-05-08T12:31:48;9.73;;;5.57;;
33672;SDS011;20011;51.510;9.942;2023-05-08T12:34:15;7.90;;;5.50;;
33672;SDS011;20011;51.510;9.942;2023-05-08T12:36:43;6.63;;;5.25;;
33672;SDS011;20011;51.510;9.942;2023-05-08T12:39:14;5.97;;;4.45;;
33672;SDS011;20011;51.510;9.942;2023-05-08T12:44:17;8.00;;;4.72;;
33672;SDS011;20011;51.510;9.942;2023-05-08T12:46:45;7.43;;;5.00;;
33672;SDS011;20011;51.510;9.942;2023-05-08T12:49:21;7.75;;;5.95;;
33672;SDS011;20011;51.510;9.942;2023-05-08T12:52:06;4.60;;;3.97;;
33672;SDS011;20011;51.510;9.942;2023-05-08T12:54:38;5.95;;;4.88;;
33672;SDS011;20011;51.510;9.942;2023-05-08T12:57:10;7.78;;;4.53;;
33672;SDS011;20011;51.510;9.942;2023-05-08T12:59:38;3.50;;;3.20;;
33672;SDS011;20011;51.510;9.942;2023-05-08T13:02:16;7.53;;;6.50;;
33672;SDS011;20011;51.510;9.942;2023-05-08T13:04:44;9.40;;;7.40;;
33672;SDS011;20011;51.510;9.942;2023-05-08T13:07:12;13.27;;;7.45;;
33672;SDS011;20011;51.510;9.942;2023-05-08T13:09:39;8.13;;;5.80;;
33672;SDS011;20011;51.510;9.942;2023-05-08T13:12:21;5.85;;;4.28;;
33672;SDS011;20011;51.510;9.942;2023-05-08T13:14:47;8.82;;;4.82;;
33672;SDS011;20011;51.510;9.942;2023-05-08T13:17:17;5.88;;;4.22;;
33672;SDS011;20011;51.510;9.942;2023-05-08T13:19:44;6.93;;;5.68;;
33672;SDS011;20011;51.510;9.942;2023-05-08T13:22:11;9.18;;;6.68;;
33672;SDS011;20011;51.510;9.942;2023-05-08T13:24:38;7.95;;;5.72;;
33672;SDS011;20011;51.510;9.942;2023-05-08T13:27:05;5.13;;;4.28;;
33672;SDS011;20011;51.510;9.942;2023-05-08T13:29:32;6.18;;;3.88;;
33672;SDS011;20011;51.510;9.942;2023-05-08T13:31:59;5.38;;;3.88;;
33672;SDS011;20011;51.510;9.942;2023-05-08T13:34:26;5.43;;;4.18;;
33672;SDS011;20011;51.510;9.942;2023-05-08T13:36:53;7.28;;;5.88;;
33672;SDS011;20011;51.510;9.942;2023-05-08T13:39:20;7.53;;;5.15;;
33672;SDS011;20011;51.510;9.942;2023-05-08T13:41:47;7.30;;;4.20;;
33672;SDS011;20011;51.510;9.942;2023-05-08T13:44:14;4.93;;;4.07;;
33672;SDS011;20011;51.510;9.942;2023-05-08T13:46:41;5.93;;;3.67;;
33672;SDS011;20011;51.510;9.942;2023-05-08T13:49:07;6.50;;;4.93;;
33672;SDS011;20011;51.510;9.942;2023-05-08T13:51:34;7.85;;;4.15;;
33672;SDS011;20011;51.510;9.942;2023-05-08T13:54:01;3.92;;;3.38;;
33672;SDS011;20011;51.510;9.942;2023-05-08T13:56:28;5.38;;;4.70;;
33672;SDS011;20011;51.510;9.942;2023-05-08T13:58:55;4.90;;;3.25;;
33672;SDS011;20011;51.510;9.942;2023-05-08T14:01:22;4.47;;;2.80;;
33672;SDS011;20011;51.510;9.942;2023-05-08T14:03:53;9.48;;;6.07;;
33672;SDS011;20011;51.510;9.942;2023-05-08T14:06:21;6.28;;;5.05;;
33672;SDS011;20011;51.510;9.942;2023-05-08T14:08:48;4.95;;;3.55;;
33672;SDS011;20011;51.510;9.942;2023-05-08T14:11:22;7.50;;;3.60;;
33672;SDS011;20011;51.510;9.942;2023-05-08T14:13:49;3.42;;;3.10;;
33672;SDS011;20011;51.510;9.942;2023-05-08T14:19:08;3.53;;;2.85;;
33672;SDS011;20011;51.510;9.942;2023-05-08T14:21:35;5.05;;;3.25;;
33672;SDS011;20011;51.510;9.942;2023-05-08T14:24:02;14.20;;;4.25;;
33672;SDS011;20011;51.510;9.942;2023-05-08T14:26:29;5.45;;;4.60;;
33672;SDS011;20011;51.510;9.942;2023-05-08T14:28:56;12.52;;;6.45;;
33672;SDS011;20011;51.510;9.942;2023-05-08T14:31:23;8.77;;;6.00;;
33672;SDS011;20011;51.510;9.942;2023-05-08T14:33:50;5.68;;;3.60;;
33672;SDS011;20011;51.510;9.942;2023-05-08T14:36:17;5.97;;;3.75;;
33672;SDS011;20011;51.510;9.942;2023-05-08T14:38:44;4.68;;;3.55;;
33672;SDS011;20011;51.510;9.942;2023-05-08T14:41:12;9.23;;;5.78;;
33672;SDS011;20011;51.510;9.942;2023-05-08T14:43:38;5.40;;;4.22;;
33672;SDS011;20011;51.510;9.942;2023-05-08T14:46:05;6.40;;;5.38;;
33672;SDS011;20011;51.510;9.942;2023-05-08T14:48:33;4.82;;;4.15;;
33672;SDS011;20011;51.510;9.942;2023-05-08T14:50:59;6.45;;;4.80;;
33672;SDS011;20011;51.510;9.942;2023-05-08T14:53:26;7.40;;;4.63;;
33672;SDS011;20011;51.510;9.942;2023-05-08T14:55:53;7.15;;;5.53;;
33672;SDS011;20011;51.510;9.942;2023-05-08T14:58:21;7.28;;;5.95;;
33672;SDS011;20011;51.510;9.942;2023-05-08T15:00:47;11.93;;;5.50;;
33672;SDS011;20011;51.510;9.942;2023-05-08T15:03:14;5.80;;;5.20;;
33672;SDS011;20011;51.510;9.942;2023-05-08T15:05:42;10.15;;;5.93;;
33672;SDS011;20011;51.510;9.942;2023-05-08T15:08:09;5.65;;;4.93;;
33672;SDS011;20011;51.510;9.942;2023-05-08T15:10:35;8.82;;;5.10;;
33672;SDS011;20011;51.510;9.942;2023-05-08T15:13:02;6.25;;;4.93;;
33672;SDS011;20011;51.510;9.942;2023-05-08T15:15:30;5.78;;;4.22;;
33672;SDS011;20011;51.510;9.942;2023-05-08T15:17:57;6.82;;;5.55;;
33672;SDS011;20011;51.510;9.942;2023-05-08T15:20:24;10.90;;;6.13;;
33672;SDS011;20011;51.510;9.942;2023-05-08T15:22:51;17.00;;;6.10;;
33672;SDS011;20011;51.510;9.942;2023-05-08T15:25:19;11.95;;;5.60;;
33672;SDS011;20011;51.510;9.942;2023-05-08T15:27:53;4.80;;;3.80;;
33672;SDS011;20011;51.510;9.942;2023-05-08T15:30:20;10.18;;;4.07;;
33672;SDS011;20011;51.510;9.942;2023-05-08T15:32:47;5.68;;;5.07;;
33672;SDS011;20011;51.510;9.942;2023-05-08T15:35:14;4.97;;;3.50;;
33672;SDS011;20011;51.510;9.942;2023-05-08T15:37:41;8.90;;;4.55;;
33672;SDS011;20011;51.510;9.942;2023-05-08T15:40:08;4.93;;;3.90;;
33672;SDS011;20011;51.510;9.942;2023-05-08T15:42:35;4.20;;;3.80;;
33672;SDS011;20011;51.510;9.942;2023-05-08T15:45:02;4.88;;;3.90;;
33672;SDS011;20011;51.510;9.942;2023-05-08T15:47:30;4.50;;;3.38;;
33672;SDS011;20011;51.510;9.942;2023-05-08T15:49:57;7.10;;;3.60;;
33672;SDS011;20011;51.510;9.942;2023-05-08T15:52:23;4.97;;;3.08;;
33672;SDS011;20011;51.510;9.942;2023-05-08T15:54:50;4.20;;;3.40;;
33672;SDS011;20011;51.510;9.942;2023-05-08T15:57:18;3.25;;;2.88;;
33672;SDS011;20011;51.510;9.942;2023-05-08T15:59:45;5.55;;;3.08;;
33672;SDS011;20011;51.510;9.942;2023-05-08T16:02:11;3.92;;;3.50;;
33672;SDS011;20011;51.510;9.942;2023-05-08T16:04:39;3.95;;;3.13;;